Time;durP1;ratioP1;P1;durP2;ratioP2;P2;SDS_P1;SDS_P2;PMS_P1;PMS_P2;Temp;Humidity;BMP_temperature;BMP_pressure;BME280_temperature;BME280_humidity;BME280_pressure;Samples;Min_cycle;Max_cycle;Signal;HPM_P1;HPM_P2
2023/07/12 00:02:09;;;;;;;2.90;2.70;;;20.20;68.90;;;;;;5037301;28;20014;-50
2023/07/12 00:04:35;;;;;;;2.83;2.58;;;20.20;68.90;;;;;;5037187;28;20037;-51
2023/07/12 00:07:01;;;;;;;2.55;2.35;;;20.20;69.00;;;;;;5037108;28;20030;-51
2023/07/12 00:09:26;;;;;;;4.43;2.78;;;20.20;69.10;;;;;;5036141;28;20041;-52
2023/07/12 00:11:52;;;;;;;3.25;2.72;;;20.20;69.30;;;;;;5037036;28;20029;-54
2023/07/12 00:14:17;;;;;;;3.72;2.50;;;20.10;69.40;;;;;;5036982;28;20025;-50
2023/07/12 00:16:43;;;;;;;2.70;2.50;;;20.10;69.50;;;;;;5036605;28;20018;-51
2023/07/12 00:19:15;;;;;;;3.00;2.70;;;20.00;69.60;;;;;;5036828;28;20044;-53
2023/07/12 00:21:41;;;;;;;3.33;2.60;;;20.00;69.90;;;;;;5036830;28;20009;-52
2023/07/12 00:24:09;;;;;;;2.85;2.60;;;20.00;70.00;;;;;;5036683;28;20033;-49
2023/07/12 00:26:37;;;;;;;10.23;2.70;;;20.00;70.10;;;;;;5036866;28;20048;-51
2023/07/12 00:29:05;;;;;;;3.10;2.80;;;19.90;70.10;;;;;;5036634;28;20016;-52
2023/07/12 00:31:31;;;;;;;2.85;2.53;;;20.00;70.30;;;;;;5036517;28;20042;-53
2023/07/12 00:33:57;;;;;;;4.18;2.58;;;19.90;70.50;;;;;;5036326;28;20057;-54
2023/07/12 00:36:32;;;;;;;2.95;2.67;;;19.90;70.60;;;;;;5036602;28;20064;-50
2023/07/12 00:38:59;;;;;;;2.70;2.50;;;19.90;70.60;;;;;;5036632;28;20018;-51
2023/07/12 00:41:52;;;;;;;2.72;2.53;;;19.90;70.80;;;;;;5033942;28;20022;-50
2023/07/12 00:44:31;;;;;;;3.92;2.75;;;19.90;70.70;;;;;;5036796;28;20057;-53
2023/07/12 00:46:57;;;;;;;3.00;2.70;;;19.90;70.90;;;;;;5036631;28;20033;-54
2023/07/12 00:49:24;;;;;;;2.70;2.50;;;19.90;71.00;;;;;;5036242;28;20025;-51
2023/07/12 00:51:53;;;;;;;2.80;2.60;;;19.80;71.00;;;;;;5036537;28;20016;-53
2023/07/12 00:54:23;;;;;;;2.90;2.63;;;19.80;71.10;;;;;;5036380;28;20030;-54
2023/07/12 00:56:49;;;;;;;3.05;2.78;;;19.80;71.20;;;;;;5036272;28;20014;-52
2023/07/12 00:59:21;;;;;;;3.25;2.95;;;19.80;71.90;;;;;;5036449;28;20037;-52
2023/07/12 01:01:52;;;;;;;2.70;2.50;;;19.70;71.40;;;;;;5036394;28;20058;-50
2023/07/12 01:04:22;;;;;;;2.85;2.50;;;19.70;71.50;;;;;;5036513;28;20058;-53
2023/07/12 01:06:51;;;;;;;3.33;2.93;;;19.70;71.70;;;;;;5036580;28;20088;-54
2023/07/12 01:09:18;;;;;;;2.83;2.63;;;19.70;71.80;;;;;;5036263;28;20264;-53
2023/07/12 01:11:45;;;;;;;2.95;2.63;;;19.60;71.90;;;;;;5036653;28;20018;-49
2023/07/12 01:14:15;;;;;;;2.55;2.35;;;19.60;72.10;;;;;;5036236;28;20014;-51
2023/07/12 01:16:44;;;;;;;3.08;2.78;;;19.60;72.30;;;;;;5036277;28;20061;-53
2023/07/12 01:19:10;;;;;;;3.72;3.25;;;19.60;72.40;;;;;;5036089;28;20030;-55
2023/07/12 01:21:41;;;;;;;3.00;2.70;;;19.50;72.60;;;;;;5036730;28;20030;-52
2023/07/12 01:24:07;;;;;;;2.78;2.58;;;19.60;72.80;;;;;;5040194;28;20075;-53
2023/07/12 01:26:36;;;;;;;2.67;2.47;;;19.60;73.10;;;;;;5040332;28;20021;-53
2023/07/12 01:29:04;;;;;;;3.88;3.20;;;19.60;73.30;;;;;;5040221;28;20030;-53
2023/07/12 01:31:31;;;;;;;3.20;2.90;;;19.60;73.50;;;;;;5040382;28;20082;-51
2023/07/12 01:33:57;;;;;;;2.85;2.65;;;19.60;73.50;;;;;;5039921;28;20034;-54
2023/07/12 01:36:24;;;;;;;3.63;2.90;;;19.60;73.70;;;;;;5040059;28;20030;-53
2023/07/12 01:38:51;;;;;;;3.05;2.70;;;19.60;73.80;;;;;;5040011;28;20018;-49
2023/07/12 01:41:17;;;;;;;2.92;2.70;;;19.60;73.70;;;;;;5039992;28;20053;-51
2023/07/12 01:43:43;;;;;;;3.13;2.83;;;19.60;73.50;;;;;;5039836;28;20041;-55
2023/07/12 01:46:08;;;;;;;2.63;2.42;;;19.60;73.40;;;;;;5040028;28;20026;-54
2023/07/12 01:48:34;;;;;;;3.22;2.70;;;19.60;73.30;;;;;;5039988;28;20025;-55
2023/07/12 01:51:01;;;;;;;3.08;2.78;;;19.60;73.40;;;;;;5039950;28;20026;-52
2023/07/12 01:53:28;;;;;;;2.92;2.72;;;19.60;73.30;;;;;;5039757;28;20018;-51
2023/07/12 01:55:54;;;;;;;2.97;2.78;;;19.60;73.40;;;;;;5039807;28;20072;-51
2023/07/12 01:58:21;;;;;;;2.55;2.35;;;19.60;73.50;;;;;;5039821;28;20041;-50
2023/07/12 02:00:48;;;;;;;2.30;2.15;;;19.60;73.50;;;;;;5039755;28;20026;-53
2023/07/12 02:03:15;;;;;;;3.67;2.20;;;19.60;73.50;;;;;;5039506;28;20095;-50
2023/07/12 02:05:41;;;;;;;3.33;2.55;;;19.60;73.60;;;;;;5039794;28;20034;-53
2023/07/12 02:08:07;;;;;;;2.75;2.47;;;19.60;73.60;;;;;;5039638;28;20014;-53
2023/07/12 02:10:33;;;;;;;2.65;2.45;;;19.50;73.70;;;;;;5039436;28;20044;-51
2023/07/12 02:12:58;;;;;;;2.92;2.60;;;19.50;73.90;;;;;;5039386;28;20025;-55
2023/07/12 02:15:24;;;;;;;2.55;2.35;;;19.50;73.90;;;;;;5039276;28;20089;-52
2023/07/12 02:17:50;;;;;;;2.45;2.25;;;19.50;73.80;;;;;;5039335;28;20033;-53
2023/07/12 02:20:15;;;;;;;2.45;2.25;;;19.40;73.60;;;;;;5039410;28;20026;-54
2023/07/12 02:22:43;;;;;;;2.72;2.45;;;19.40;73.70;;;;;;5039185;28;20021;-55
2023/07/12 02:25:10;;;;;;;2.63;2.42;;;19.40;73.90;;;;;;5038854;28;20018;-52
2023/07/12 02:27:36;;;;;;;3.10;2.80;;;19.50;74.10;;;;;;5039208;28;20034;-55
2023/07/12 02:30:04;;;;;;;3.10;2.78;;;19.50;74.10;;;;;;5038902;28;20049;-54
2023/07/12 02:32:30;;;;;;;5.00;2.92;;;19.50;74.20;;;;;;5038853;28;20045;-54
2023/07/12 02:34:55;;;;;;;5.90;2.80;;;19.50;74.40;;;;;;5039095;28;20290;-53
2023/07/12 02:37:21;;;;;;;2.45;2.25;;;19.50;74.30;;;;;;5039341;28;20038;-53
2023/07/12 02:39:46;;;;;;;2.53;2.33;;;19.50;74.30;;;;;;5038951;28;20038;-52
2023/07/12 02:42:12;;;;;;;3.05;2.67;;;19.60;74.40;;;;;;5039255;28;20034;-52
2023/07/12 02:44:39;;;;;;;2.60;2.40;;;19.60;74.40;;;;;;5038965;28;20010;-53
2023/07/12 02:47:07;;;;;;;3.33;2.75;;;19.60;74.30;;;;;;5038980;28;20041;-54
2023/07/12 02:49:33;;;;;;;3.53;2.60;;;19.60;74.40;;;;;;5038949;28;20046;-52
2023/07/12 02:51:59;;;;;;;3.08;2.78;;;19.60;74.40;;;;;;5038903;28;20038;-51
2023/07/12 02:54:25;;;;;;;3.25;2.60;;;19.60;74.40;;;;;;5038591;28;20057;-53
2023/07/12 02:56:50;;;;;;;2.78;2.47;;;19.60;74.30;;;;;;5038272;28;20040;-50
2023/07/12 02:59:16;;;;;;;3.63;3.10;;;19.50;74.30;;;;;;5038832;28;20053;-51
2023/07/12 03:01:42;;;;;;;2.80;2.60;;;19.50;74.30;;;;;;5038631;28;20046;-53
2023/07/12 03:04:08;;;;;;;2.60;2.40;;;19.50;74.30;;;;;;5038830;28;20034;-53
2023/07/12 03:06:34;;;;;;;3.08;2.78;;;19.50;74.40;;;;;;5038729;28;20018;-52
2023/07/12 03:08:59;;;;;;;3.58;2.60;;;19.50;74.50;;;;;;5038599;28;20073;-52
2023/07/12 03:11:25;;;;;;;3.78;2.55;;;19.40;74.50;;;;;;5038004;28;20042;-50
2023/07/12 03:13:51;;;;;;;3.20;2.90;;;19.50;74.60;;;;;;5038510;28;20048;-52
2023/07/12 03:16:16;;;;;;;3.00;2.70;;;19.50;74.70;;;;;;5038454;28;20041;-49
2023/07/12 03:18:42;;;;;;;2.80;2.60;;;19.40;74.60;;;;;;5038276;28;20018;-50
2023/07/12 03:21:09;;;;;;;2.78;2.58;;;19.50;74.70;;;;;;5038297;28;20026;-54
2023/07/12 03:23:36;;;;;;;3.20;2.90;;;19.50;74.70;;;;;;5038089;28;20014;-53
2023/07/12 03:26:02;;;;;;;3.10;2.50;;;19.50;74.80;;;;;;5038200;28;20034;-49
2023/07/12 03:28:28;;;;;;;3.03;2.72;;;19.60;74.90;;;;;;5038086;28;20029;-51
2023/07/12 03:31:00;;;;;;;2.85;2.60;;;19.70;75.10;;;;;;5037710;28;20038;-49
2023/07/12 03:33:27;;;;;;;2.78;2.58;;;19.80;75.30;;;;;;5037145;28;20042;-53
2023/07/12 03:35:53;;;;;;;2.90;2.70;;;19.90;75.70;;;;;;5036899;28;20132;-52
2023/07/12 03:38:19;;;;;;;3.03;2.72;;;20.10;75.60;;;;;;5036825;28;20033;-53
2023/07/12 03:40:45;;;;;;;2.55;2.35;;;20.30;75.60;;;;;;5034809;28;20026;-52
2023/07/12 03:43:11;;;;;;;2.83;2.60;;;20.60;75.50;;;;;;5035592;28;20022;-54
2023/07/12 03:45:37;;;;;;;2.92;2.60;;;21.00;75.30;;;;;;5034710;28;20034;-52
2023/07/12 03:48:02;;;;;;;2.42;2.22;;;21.40;75.00;;;;;;5035448;28;20038;-51
2023/07/12 03:50:28;;;;;;;3.67;2.60;;;22.00;74.40;;;;;;5035728;28;20073;-51
2023/07/12 03:52:54;;;;;;;2.55;2.35;;;22.70;73.40;;;;;;5035716;28;20034;-53
2023/07/12 03:55:19;;;;;;;2.40;2.20;;;23.50;71.50;;;;;;5036090;28;20033;-51
2023/07/12 03:57:45;;;;;;;2.70;2.35;;;24.40;69.90;;;;;;5036204;28;20044;-54
2023/07/12 04:00:15;;;;;;;3.63;2.33;;;25.20;68.00;;;;;;5036755;28;20030;-56
2023/07/12 04:02:41;;;;;;;2.58;2.38;;;26.10;66.10;;;;;;5035925;28;20080;-54
2023/07/12 04:05:07;;;;;;;2.45;2.25;;;26.80;64.50;;;;;;5036399;28;20029;-54
2023/07/12 04:07:33;;;;;;;3.47;2.70;;;27.60;63.00;;;;;;5036920;28;20048;-55
2023/07/12 04:09:58;;;;;;;2.60;2.40;;;28.30;61.90;;;;;;5037255;28;20037;-54
2023/07/12 04:12:24;;;;;;;2.90;2.25;;;28.90;60.60;;;;;;5036908;28;20040;-53
2023/07/12 04:14:49;;;;;;;2.90;2.50;;;29.50;59.50;;;;;;5036178;28;20053;-55
2023/07/12 04:17:15;;;;;;;2.67;2.47;;;30.10;58.40;;;;;;5036430;28;20006;-55
2023/07/12 04:19:41;;;;;;;3.97;2.50;;;30.70;57.40;;;;;;5036107;28;20048;-54
2023/07/12 04:22:07;;;;;;;2.47;2.28;;;31.20;56.60;;;;;;5035623;28;20033;-54
2023/07/12 04:24:32;;;;;;;2.17;2.00;;;31.70;55.70;;;;;;5036245;28;20026;-53
2023/07/12 04:26:59;;;;;;;2.70;2.50;;;32.10;54.90;;;;;;5035311;28;20036;-54
2023/07/12 04:29:27;;;;;;;3.35;2.05;;;32.60;54.20;;;;;;5035823;28;20010;-55
2023/07/12 04:31:52;;;;;;;2.17;2.08;;;33.00;53.70;;;;;;5036393;28;20042;-55
2023/07/12 04:34:18;;;;;;;2.55;2.35;;;33.30;52.90;;;;;;5035610;28;20017;-54
2023/07/12 04:36:44;;;;;;;2.67;2.47;;;33.70;52.40;;;;;;5036353;28;20021;-55
2023/07/12 04:39:09;;;;;;;2.15;1.95;;;34.00;51.90;;;;;;5034733;28;20040;-53
2023/07/12 04:41:35;;;;;;;2.20;2.00;;;34.30;51.60;;;;;;5016927;28;20037;-55
2023/07/12 04:44:01;;;;;;;2.60;2.40;;;34.60;51.20;;;;;;5016471;28;20037;-55
2023/07/12 04:46:27;;;;;;;2.55;2.35;;;34.80;50.80;;;;;;5016731;28;20048;-54
2023/07/12 04:48:53;;;;;;;2.80;2.60;;;35.00;50.40;;;;;;5016304;28;20445;-56
2023/07/12 04:51:19;;;;;;;3.05;2.40;;;35.20;50.00;;;;;;5012786;28;20053;-54
2023/07/12 04:53:47;;;;;;;2.83;2.53;;;35.40;49.70;;;;;;5012810;28;20015;-54
2023/07/12 04:56:14;;;;;;;2.33;2.22;;;35.50;49.50;;;;;;5013123;28;20026;-56
2023/07/12 04:58:40;;;;;;;2.67;2.47;;;35.60;49.10;;;;;;5011519;28;20055;-55
2023/07/12 05:01:05;;;;;;;2.35;2.15;;;35.70;49.00;;;;;;5011990;28;20042;-54
2023/07/12 05:03:31;;;;;;;2.83;2.28;;;35.80;48.70;;;;;;5012881;28;20013;-55
2023/07/12 05:05:59;;;;;;;2.33;2.13;;;35.90;48.50;;;;;;5013910;28;20088;-55
2023/07/12 05:08:25;;;;;;;4.80;2.38;;;36.00;48.20;;;;;;5012877;28;20030;-55
2023/07/12 05:10:50;;;;;;;2.53;2.33;;;36.10;48.00;;;;;;5012180;28;20061;-53
2023/07/12 05:13:16;;;;;;;2.30;2.10;;;36.20;47.70;;;;;;5021884;28;20034;-55
2023/07/12 05:15:49;;;;;;;3.20;2.22;;;36.20;47.50;;;;;;5027407;28;20034;-55
2023/07/12 05:18:15;;;;;;;2.30;2.15;;;36.20;47.40;;;;;;5028517;28;20541;-55
2023/07/12 05:20:41;;;;;;;2.00;1.85;;;36.30;47.30;;;;;;5032188;28;20084;-53
2023/07/12 05:23:06;;;;;;;1.98;1.80;;;36.40;47.00;;;;;;5032262;28;20103;-53
2023/07/12 05:25:32;;;;;;;3.22;1.88;;;36.40;46.60;;;;;;5033095;28;20069;-53
2023/07/12 05:27:58;;;;;;;2.72;2.00;;;36.30;45.90;;;;;;5033311;28;20057;-56
2023/07/12 05:30:24;;;;;;;2.85;2.22;;;35.90;45.80;;;;;;5032091;28;20077;-54
2023/07/12 05:32:49;;;;;;;2.55;1.92;;;35.30;45.80;;;;;;5033115;28;20056;-55
2023/07/12 05:35:15;;;;;;;2.00;1.90;;;34.40;46.30;;;;;;5032755;28;20045;-55
2023/07/12 05:37:41;;;;;;;2.65;2.33;;;33.60;47.10;;;;;;5033936;28;20073;-54
2023/07/12 05:40:09;;;;;;;2.15;2.00;;;32.60;48.00;;;;;;5033755;28;20034;-55
2023/07/12 05:42:40;;;;;;;3.10;1.98;;;31.70;48.70;;;;;;5033811;28;20014;-53
2023/07/12 05:45:06;;;;;;;;;;;30.80;49.50;;;;;;5033509;28;20037;-55
2023/07/12 05:47:31;;;;;;;2.70;2.08;;;30.10;50.30;;;;;;5033356;28;19910;-53
2023/07/12 05:49:57;;;;;;;1.80;1.70;;;29.50;51.00;;;;;;5033090;28;20041;-52
2023/07/12 05:52:23;;;;;;;2.17;2.00;;;28.90;51.70;;;;;;5033002;28;20030;-53
2023/07/12 05:54:48;;;;;;;2.50;2.30;;;28.40;52.30;;;;;;5033211;28;20029;-52
2023/07/12 05:57:14;;;;;;;3.00;2.00;;;28.00;53.10;;;;;;5032313;28;20053;-55
2023/07/12 05:59:39;;;;;;;2.45;2.25;;;27.70;53.50;;;;;;5033276;28;20061;-53
2023/07/12 06:02:08;;;;;;;2.42;2.22;;;27.30;53.80;;;;;;5032858;28;20528;-53
2023/07/12 06:04:33;;;;;;;2.03;1.90;;;27.10;54.20;;;;;;5033773;28;20018;-50
2023/07/12 06:06:59;;;;;;;2.28;2.08;;;26.80;54.60;;;;;;5033272;28;20065;-51
2023/07/12 06:09:24;;;;;;;2.15;1.95;;;26.50;55.00;;;;;;5037042;28;20449;-53
2023/07/12 06:11:50;;;;;;;3.15;2.45;;;26.40;55.40;;;;;;5037594;28;20030;-53
2023/07/12 06:14:16;;;;;;;1.92;1.83;;;26.20;56.40;;;;;;5038219;28;20049;-53
2023/07/12 06:16:43;;;;;;;3.22;2.28;;;26.10;56.20;;;;;;5038110;28;20166;-52
2023/07/12 06:19:08;;;;;;;2.17;1.98;;;25.90;56.30;;;;;;5038375;28;20030;-52
2023/07/12 06:21:34;;;;;;;2.50;2.10;;;25.80;56.50;;;;;;5038490;28;20057;-52
2023/07/12 06:24:00;;;;;;;2.05;1.95;;;25.70;56.80;;;;;;5038174;28;20038;-54
2023/07/12 06:26:26;;;;;;;2.30;2.10;;;25.60;56.90;;;;;;5038926;28;20158;-51
2023/07/12 06:28:51;;;;;;;1.88;1.77;;;25.50;56.90;;;;;;5038924;28;20018;-53
2023/07/12 06:31:17;;;;;;;1.90;1.80;;;25.50;56.90;;;;;;5038815;28;20049;-52
2023/07/12 06:33:43;;;;;;;2.25;1.92;;;25.40;57.00;;;;;;5038929;28;20045;-55
2023/07/12 06:36:08;;;;;;;2.00;1.90;;;25.40;57.80;;;;;;5038658;28;20058;-54
2023/07/12 06:38:34;;;;;;;1.67;1.58;;;25.30;56.90;;;;;;5038171;28;20018;-53
2023/07/12 06:41:00;;;;;;;2.15;2.00;;;25.20;57.00;;;;;;5038743;28;20010;-53
2023/07/12 06:43:26;;;;;;;1.65;1.55;;;25.20;57.10;;;;;;5038499;28;20045;-54
2023/07/12 06:45:51;;;;;;;2.22;2.03;;;25.10;57.10;;;;;;5038731;28;20041;-51
2023/07/12 06:48:17;;;;;;;1.77;1.67;;;25.10;57.00;;;;;;5019517;28;20022;-51
2023/07/12 06:50:43;;;;;;;2.13;1.95;;;25.00;57.00;;;;;;5037856;28;20030;-54
2023/07/12 06:53:08;;;;;;;2.58;1.60;;;25.00;56.80;;;;;;5038027;28;20026;-54
2023/07/12 06:55:34;;;;;;;2.13;1.92;;;25.00;57.00;;;;;;5038785;28;20033;-53
2023/07/12 06:58:00;;;;;;;3.65;1.88;;;24.90;57.10;;;;;;5038091;28;20056;-51
2023/07/12 07:00:26;;;;;;;2.08;1.88;;;24.90;57.30;;;;;;5035997;28;20042;-53
2023/07/12 07:02:52;;;;;;;1.80;1.70;;;24.90;57.30;;;;;;5038372;28;20085;-53
2023/07/12 07:05:17;;;;;;;1.80;1.70;;;24.90;58.10;;;;;;5025139;28;20030;-52
2023/07/12 07:07:43;;;;;;;1.73;1.63;;;24.90;57.60;;;;;;5029554;28;20045;-54
2023/07/12 07:10:09;;;;;;;3.25;2.08;;;24.90;57.60;;;;;;5030186;28;20469;-52
2023/07/12 07:12:35;;;;;;;1.80;1.70;;;24.90;57.60;;;;;;5026605;28;20049;-49
2023/07/12 07:15:00;;;;;;;2.03;1.83;;;24.90;57.60;;;;;;5023642;28;20030;-51
2023/07/12 07:17:26;;;;;;;2.72;1.70;;;24.90;57.50;;;;;;5028660;28;20025;-52
2023/07/12 07:19:51;;;;;;;1.80;1.70;;;24.80;57.50;;;;;;5027802;28;20034;-50
2023/07/12 07:22:17;;;;;;;2.05;1.95;;;24.80;57.40;;;;;;5024924;28;20100;-52
2023/07/12 07:24:43;;;;;;;2.00;1.83;;;24.80;57.60;;;;;;5031032;28;20098;-49
2023/07/12 07:27:09;;;;;;;1.80;1.70;;;24.80;57.50;;;;;;5029362;28;20017;-52
2023/07/12 07:29:36;;;;;;;1.88;1.77;;;24.80;57.40;;;;;;5032151;28;20029;-51
2023/07/12 07:32:01;;;;;;;1.63;1.52;;;24.80;57.50;;;;;;5031171;28;20022;-54
2023/07/12 07:34:27;;;;;;;2.00;1.90;;;24.80;57.50;;;;;;5031695;28;20094;-52
2023/07/12 07:36:52;;;;;;;1.98;1.88;;;24.80;57.60;;;;;;5031679;28;20504;-52
2023/07/12 07:39:18;;;;;;;2.22;2.03;;;24.80;57.60;;;;;;5027986;28;20410;-52
2023/07/12 07:41:44;;;;;;;1.83;1.73;;;24.90;57.40;;;;;;5028182;28;20045;-52
2023/07/12 07:44:09;;;;;;;2.08;1.95;;;25.00;57.20;;;;;;5019786;28;20041;-52
2023/07/12 07:46:35;;;;;;;1.83;1.60;;;25.00;56.90;;;;;;5024921;28;20014;-50
2023/07/12 07:49:00;;;;;;;1.70;1.60;;;25.10;56.80;;;;;;5024206;28;20033;-53
2023/07/12 07:51:29;;;;;;;2.10;1.98;;;25.20;56.70;;;;;;5026449;28;20093;-50
2023/07/12 07:53:54;;;;;;;1.83;1.73;;;25.20;56.60;;;;;;5024567;28;20057;-51
2023/07/12 07:56:20;;;;;;;1.70;1.60;;;25.30;56.40;;;;;;5029097;28;20022;-53
2023/07/12 07:58:46;;;;;;;1.95;1.70;;;25.40;56.20;;;;;;5032432;28;20053;-49
2023/07/12 08:01:11;;;;;;;1.83;1.73;;;25.40;56.00;;;;;;5036868;28;20018;-49
2023/07/12 08:03:37;;;;;;;1.77;1.67;;;25.40;55.80;;;;;;5030135;23;20506;-85
2023/07/12 08:06:05;;;;;;;1.65;1.55;;;25.30;55.80;;;;;;5001648;28;20116;-86
2023/07/12 08:08:32;;;;;;;1.98;1.88;;;25.30;55.80;;;;;;5020927;28;20051;-85
2023/07/12 08:10:58;;;;;;;1.67;1.58;;;25.20;55.50;;;;;;5000658;28;20030;-86
2023/07/12 08:13:24;;;;;;;2.47;1.80;;;25.10;55.50;;;;;;5001528;28;20026;-84
2023/07/12 08:15:54;;;;;;;1.70;1.60;;;25.10;55.80;;;;;;5016450;28;20431;-84
2023/07/12 08:18:19;;;;;;;2.88;1.90;;;25.00;55.70;;;;;;4981826;28;20058;-85
2023/07/12 08:20:45;;;;;;;2.78;1.50;;;24.90;55.60;;;;;;4984470;28;20353;-85
2023/07/12 08:23:10;;;;;;;1.95;1.73;;;24.80;55.60;;;;;;4981557;28;20038;-87
2023/07/12 08:25:36;;;;;;;1.90;1.67;;;24.70;55.50;;;;;;4997287;28;20066;-85
2023/07/12 08:28:02;;;;;;;1.90;1.80;;;24.70;55.20;;;;;;4992201;28;20370;-85
2023/07/12 08:33:02;;;;;;;1.80;1.70;;;24.50;55.40;;;;;;4984540;28;20050;-86
2023/07/12 08:35:27;;;;;;;1.65;1.55;;;24.50;55.30;;;;;;5027667;23;20073;-85
2023/07/12 08:37:55;;;;;;;1.83;1.73;;;24.40;55.30;;;;;;5006587;28;20494;-85
2023/07/12 08:40:21;;;;;;;1.70;1.60;;;24.30;55.50;;;;;;5023386;28;20022;-85
2023/07/12 08:42:46;;;;;;;2.00;1.73;;;24.30;55.80;;;;;;5031343;28;20024;-86
2023/07/12 08:45:28;;;;;;;1.90;1.80;;;24.20;55.80;;;;;;5035909;28;20064;-87
2023/07/12 08:55:38;;;;;;;1.65;1.55;;;23.90;55.70;;;;;;5011369;28;20053;-86
2023/07/12 08:58:23;;;;;;;1.70;1.60;;;23.90;55.40;;;;;;5016377;28;20034;-84
2023/07/12 09:01:05;;;;;;;1.98;1.77;;;23.70;55.40;;;;;;5011291;28;20030;-86
2023/07/12 09:03:31;;;;;;;2.00;1.83;;;23.70;55.60;;;;;;5003095;28;20033;-87
2023/07/12 09:05:58;;;;;;;1.85;1.75;;;23.60;55.80;;;;;;5023338;28;20031;-84
2023/07/12 09:08:49;;;;;;;1.75;1.60;;;23.60;55.80;;;;;;5008387;28;20073;-83
2023/07/12 09:11:17;;;;;;;2.20;2.00;;;23.50;55.60;;;;;;5002312;28;20437;-85
2023/07/12 09:13:46;;;;;;;2.25;1.63;;;23.50;55.70;;;;;;5007685;28;20061;-87
2023/07/12 09:16:38;;;;;;;1.70;1.60;;;23.40;55.30;;;;;;5005277;28;20022;-86
2023/07/12 09:19:18;;;;;;;1.85;1.75;;;23.40;55.20;;;;;;5003391;28;20030;-85
2023/07/12 09:21:48;;;;;;;1.30;1.30;;;23.30;55.20;;;;;;5010815;28;20478;-83
2023/07/12 09:24:23;;;;;;;1.83;1.67;;;23.20;55.00;;;;;;5028473;28;20030;-85
2023/07/12 09:26:50;;;;;;;1.60;1.50;;;23.20;55.00;;;;;;5028660;28;20068;-84
2023/07/12 09:29:21;;;;;;;1.60;1.50;;;23.10;54.90;;;;;;5011017;28;20088;-85
2023/07/12 09:31:48;;;;;;;1.60;1.50;;;23.10;54.60;;;;;;5012337;28;20333;-85
2023/07/12 09:34:32;;;;;;;1.63;1.50;;;23.10;54.90;;;;;;5024932;28;20049;-85
2023/07/12 09:36:59;;;;;;;1.67;1.58;;;23.00;54.40;;;;;;5004881;28;20026;-82
2023/07/12 09:39:28;;;;;;;1.80;1.70;;;23.00;54.20;;;;;;5010993;28;20058;-84
2023/07/12 09:41:59;;;;;;;1.58;1.48;;;23.00;54.10;;;;;;5029393;28;20036;-85
2023/07/12 09:44:27;;;;;;;2.22;1.70;;;22.90;54.50;;;;;;5188083;22;20062;-84
2023/07/12 09:47:13;;;;;;;1.65;1.55;;;22.80;54.30;;;;;;5006912;28;20026;-86
2023/07/12 09:50:01;;;;;;;1.70;1.60;;;22.80;54.00;;;;;;5021194;28;20018;-86
2023/07/12 09:52:36;;;;;;;1.40;1.30;;;22.80;54.20;;;;;;5010756;28;20030;-88
2023/07/12 09:55:09;;;;;;;2.70;1.67;;;22.80;54.20;;;;;;5008653;28;20034;-89
2023/07/12 09:57:44;;;;;;;1.77;1.67;;;22.70;54.40;;;;;;5001755;28;20030;-87
2023/07/12 10:00:29;;;;;;;1.58;1.48;;;22.70;54.40;;;;;;4992306;28;20996;-88
2023/07/12 10:03:22;;;;;;;1.63;1.52;;;22.70;54.40;;;;;;4994680;28;20097;-84
2023/07/12 10:05:55;;;;;;;2.50;1.63;;;22.70;54.80;;;;;;4995670;28;20038;-86
2023/07/12 10:08:23;;;;;;;1.58;1.48;;;22.70;54.90;;;;;;5017851;28;20037;-86
2023/07/12 10:11:15;;;;;;;1.52;1.42;;;22.70;54.70;;;;;;4990570;28;20478;-84
2023/07/12 10:13:43;;;;;;;1.58;1.48;;;22.60;54.10;;;;;;5003526;28;20041;-84
2023/07/12 10:16:21;;;;;;;1.40;1.30;;;22.60;54.20;;;;;;5004971;28;20022;-87
2023/07/12 10:18:48;;;;;;;1.20;1.20;;;22.60;53.90;;;;;;4997108;28;20053;-84
2023/07/12 10:21:19;;;;;;;1.20;1.13;;;22.60;53.90;;;;;;5006316;28;20058;-84
2023/07/12 10:23:55;;;;;;;1.70;1.48;;;22.50;53.60;;;;;;4990258;28;20030;-84
2023/07/12 10:26:21;;;;;;;1.35;1.30;;;22.50;53.90;;;;;;4986980;28;20045;-85
2023/07/12 10:28:53;;;;;;;1.70;1.60;;;22.50;53.90;;;;;;4998283;28;20031;-86
2023/07/12 10:31:34;;;;;;;1.70;1.60;;;22.50;54.00;;;;;;5000939;28;20584;-87
2023/07/12 10:34:14;;;;;;;1.98;1.77;;;22.50;54.20;;;;;;5004860;28;20022;-87
2023/07/12 10:36:41;;;;;;;1.75;1.65;;;22.50;54.10;;;;;;5076695;23;20058;-86
2023/07/12 10:39:08;;;;;;;2.22;1.70;;;22.50;54.60;;;;;;5010921;28;20526;-87
2023/07/12 10:41:51;;;;;;;1.85;1.60;;;22.50;54.80;;;;;;5201190;23;20022;-53
2023/07/12 10:44:23;;;;;;;2.50;1.55;;;22.50;55.20;;;;;;5024013;28;20024;-51
2023/07/12 10:46:54;;;;;;;1.50;1.40;;;22.50;55.60;;;;;;5022536;28;20050;-52
2023/07/12 10:49:56;;;;;;;1.95;1.55;;;22.50;55.80;;;;;;5022519;28;20030;-51
2023/07/12 10:52:32;;;;;;;1.55;1.45;;;22.50;56.50;;;;;;5034683;23;20045;-83
2023/07/12 10:55:04;;;;;;;1.70;1.60;;;22.50;56.40;;;;;;5008466;28;20040;-86
2023/07/12 10:58:12;;;;;;;1.58;1.48;;;22.50;56.40;;;;;;5013601;28;20127;-86
2023/07/12 11:00:56;;;;;;;1.65;1.35;;;22.40;55.90;;;;;;5014261;28;20156;-85
2023/07/12 11:03:39;;;;;;;1.13;1.00;;;22.40;55.00;;;;;;5030512;28;20042;-85
2023/07/12 11:06:26;;;;;;;1.40;1.30;;;22.40;54.50;;;;;;5018194;28;20052;-85
2023/07/12 11:08:59;;;;;;;1.17;1.10;;;22.40;54.20;;;;;;5015725;28;20037;-84
2023/07/12 11:11:34;;;;;;;1.05;1.00;;;22.40;54.60;;;;;;5009302;28;20038;-84
2023/07/12 11:14:11;;;;;;;1.10;1.10;;;22.30;54.50;;;;;;5016080;28;20038;-87
2023/07/12 11:16:45;;;;;;;1.00;1.00;;;22.30;54.60;;;;;;5019204;28;20401;-81
2023/07/12 11:19:33;;;;;;;1.13;1.13;;;22.30;54.40;;;;;;5005293;28;20033;-82
2023/07/12 11:22:07;;;;;;;1.30;1.20;;;22.30;54.40;;;;;;5007073;28;20037;-82
2023/07/12 11:24:38;;;;;;;0.95;0.95;;;22.30;54.50;;;;;;5006708;28;20033;-83
2023/07/12 11:27:24;;;;;;;;;;;22.30;54.40;;;;;;5009371;28;20113;-85
2023/07/12 11:29:54;;;;;;;1.20;1.10;;;22.30;53.70;;;;;;5020210;28;19952;-84
2023/07/12 11:32:31;;;;;;;1.00;1.00;;;22.30;53.90;;;;;;5011283;28;20053;-85
2023/07/12 11:35:16;;;;;;;1.08;0.80;;;22.30;53.90;;;;;;5037156;28;20037;-83
2023/07/12 11:37:49;;;;;;;1.20;1.10;;;22.30;53.40;;;;;;5004985;28;20117;-87
2023/07/12 11:40:21;;;;;;;1.20;1.20;;;22.30;52.90;;;;;;5013889;28;20021;-85
2023/07/12 11:42:47;;;;;;;1.10;1.05;;;22.30;52.80;;;;;;5007629;28;20041;-83
2023/07/12 11:45:17;;;;;;;1.30;1.20;;;22.30;53.10;;;;;;5025831;28;20040;-83
2023/07/12 11:47:51;;;;;;;1.40;1.30;;;22.30;52.90;;;;;;5010951;28;20037;-85
2023/07/12 11:50:26;;;;;;;1.10;1.10;;;22.30;52.90;;;;;;4999793;28;20498;-83
2023/07/12 11:52:53;;;;;;;1.10;1.10;;;22.30;53.00;;;;;;5014810;28;20100;-85
2023/07/12 11:55:22;;;;;;;1.35;1.25;;;22.30;53.20;;;;;;5003930;28;20025;-86
2023/07/12 11:57:48;;;;;;;1.08;1.08;;;22.40;53.10;;;;;;5019354;28;20022;-86
2023/07/12 12:00:21;;;;;;;1.58;1.48;;;22.40;53.00;;;;;;5019981;28;20030;-83
2023/07/12 12:02:53;;;;;;;1.38;1.30;;;22.40;52.80;;;;;;5007690;28;20022;-83
2023/07/12 12:05:25;;;;;;;1.80;1.13;;;22.30;53.00;;;;;;5022316;28;20034;-83
2023/07/12 12:07:52;;;;;;;1.30;1.20;;;22.40;53.00;;;;;;5041697;28;20176;-82
2023/07/12 12:10:36;;;;;;;1.23;1.23;;;22.40;52.90;;;;;;5031897;28;20071;-83
2023/07/12 12:13:19;;;;;;;1.27;1.17;;;22.40;53.00;;;;;;5029042;28;20027;-85
2023/07/12 12:16:16;;;;;;;2.03;1.83;;;22.40;53.20;;;;;;5013426;28;20540;-81
2023/07/12 12:18:59;;;;;;;1.13;1.13;;;22.40;53.00;;;;;;5024322;28;20029;-85
2023/07/12 12:21:26;;;;;;;1.40;1.30;;;22.40;53.20;;;;;;5102028;23;20017;-53
2023/07/12 12:23:54;;;;;;;1.17;0.90;;;22.40;53.20;;;;;;4998459;28;20041;-52
2023/07/12 12:26:41;;;;;;;1.25;1.15;;;22.40;53.20;;;;;;5002230;28;20015;-50
2023/07/12 12:29:28;;;;;;;0.88;0.88;;;22.40;53.40;;;;;;5006113;28;20030;-52
2023/07/12 12:32:02;;;;;;;1.60;1.50;;;22.40;53.60;;;;;;5013974;28;20022;-53
2023/07/12 12:34:36;;;;;;;1.38;1.27;;;22.40;53.40;;;;;;5007153;28;20023;-54
2023/07/12 12:37:05;;;;;;;1.33;1.10;;;22.40;53.40;;;;;;5004302;28;20034;-50
2023/07/12 12:39:31;;;;;;;1.23;1.13;;;22.40;53.70;;;;;;5004198;28;20039;-51
2023/07/12 12:41:58;;;;;;;1.30;1.20;;;22.40;53.60;;;;;;5007479;28;20037;-52
2023/07/12 12:44:34;;;;;;;1.00;1.00;;;22.40;53.80;;;;;;5004914;28;20035;-51
2023/07/12 12:47:16;;;;;;;1.20;1.20;;;22.50;53.40;;;;;;5003896;28;20947;-51
2023/07/12 12:49:42;;;;;;;1.45;1.35;;;22.40;53.30;;;;;;5003411;28;20030;-51
2023/07/12 12:52:30;;;;;;;1.00;1.00;;;22.40;53.50;;;;;;5002746;28;20023;-50
2023/07/12 12:55:05;;;;;;;1.55;1.45;;;22.50;53.60;;;;;;5004341;28;20086;-49
2023/07/12 12:57:33;;;;;;;1.70;1.60;;;22.50;53.80;;;;;;5004299;28;20046;-50
2023/07/12 13:00:00;;;;;;;1.38;1.27;;;22.50;53.70;;;;;;4999847;28;20045;-51
2023/07/12 13:02:26;;;;;;;1.58;1.48;;;22.50;53.40;;;;;;5000196;28;20026;-52
2023/07/12 13:04:53;;;;;;;1.25;1.15;;;22.50;53.00;;;;;;5000476;28;20061;-50
2023/07/12 13:07:35;;;;;;;1.40;1.30;;;22.50;53.10;;;;;;4998797;28;20032;-52
2023/07/12 13:10:02;;;;;;;1.23;1.23;;;22.50;53.20;;;;;;5004514;28;20048;-50